Time;durP1;ratioP1;P1;durP2;ratioP2;P2;SDS_P1;SDS_P2;PMS_P1;PMS_P2;Temp;Humidity;BMP_temperature;BMP_pressure;BME280_temperature;BME280_humidity;BME280_pressure;Samples;Min_cycle;Max_cycle;Signal;HPM_P1;HPM_P2
2023/09/20 00:02:39;;;;;;;;;;;;;;;;;;;;;
2023/09/20 00:05:53;;;;;;;;;;;;;;;;;;;;;
2023/09/20 00:08:58;;;;;;;3.30;2.50;;;;;;;10.39;79.86;100021.28;133289;1303;22427;-77
2023/09/20 00:12:05;;;;;;;3.80;2.30;;;;;;;10.36;79.98;100022.71;133173;1293;22500;-77
2023/09/20 00:15:26;;;;;;;7.30;2.10;;;;;;;10.31;79.76;100025.10;133295;1303;22450;-77
2023/09/20 00:18:32;;;;;;;5.60;2.40;;;;;;;10.30;79.67;100025.96;133279;1304;23199;-76
2023/09/20 00:21:34;;;;;;;3.80;2.30;;;;;;;10.24;79.57;100022.37;133087;1307;22488;-77
2023/09/20 00:24:35;;;;;;;4.80;2.40;;;;;;;10.17;79.67;100022.89;133285;1303;22482;-77
2023/09/20 00:27:42;;;;;;;5.10;2.60;;;;;;;10.15;79.75;100025.47;133274;1303;22411;-77
2023/09/20 00:30:45;;;;;;;7.10;2.40;;;;;;;10.15;80.07;100029.55;133301;1303;22433;-77
2023/09/20 00:33:54;;;;;;;4.50;2.60;;;;;;;10.14;79.90;100028.92;133248;1303;22442;-77
2023/09/20 00:37:08;;;;;;;5.10;2.10;;;;;;;10.12;80.58;100031.08;133287;1303;23661;-76
2023/09/20 00:40:23;;;;;;;8.00;2.00;;;;;;;10.10;81.06;100027.73;133256;1303;22482;-77
2023/09/20 00:43:24;;;;;;;5.70;2.20;;;;;;;10.07;80.56;100031.61;133087;1302;22245;-79
2023/09/20 00:46:33;;;;;;;3.40;2.10;;;;;;;10.03;80.33;100030.09;133316;1303;22377;-75
2023/09/20 00:49:45;;;;;;;9.80;1.80;;;;;;;9.97;80.21;100033.09;133286;1303;22572;-76
2023/09/20 00:52:54;;;;;;;4.70;2.30;;;;;;;9.94;80.32;100032.85;133316;1303;22465;-78
2023/09/20 00:56:04;;;;;;;6.30;2.20;;;;;;;9.94;80.21;100029.71;133100;1306;23334;-75
2023/09/20 00:59:10;;;;;;;5.40;1.90;;;;;;;9.92;80.02;100034.29;133281;1306;22460;-76
2023/09/20 01:02:14;;;;;;;2.30;2.10;;;;;;;9.86;79.57;100038.42;133265;1303;22448;-78
2023/09/20 01:05:21;;;;;;;2.80;2.10;;;;;;;9.81;79.79;100045.84;133248;1303;22395;-77
2023/09/20 01:08:27;;;;;;;3.30;1.80;;;;;;;9.77;80.09;100047.18;133267;1304;22938;-77
2023/09/20 01:11:32;;;;;;;3.90;2.60;;;;;;;9.73;80.03;100044.20;133174;1307;22582;-78
2023/09/20 01:14:37;;;;;;;2.40;1.90;;;;;;;9.71;80.10;100044.65;133293;1303;22393;-77
2023/09/20 01:17:57;;;;;;;;;;;;;;;;;;;;;
2023/09/20 01:21:31;;;;;;;2.90;1.70;;;;;;;9.65;80.03;100044.77;133272;1303;22450;-76
2023/09/20 01:24:34;;;;;;;3.70;1.90;;;;;;;9.58;79.91;100043.37;133255;1303;22560;-76
2023/09/20 01:27:42;;;;;;;3.10;1.70;;;;;;;9.60;80.17;100041.73;133162;1310;23334;-75
2023/09/20 01:31:05;;;;;;;2.40;1.60;;;;;;;9.60;80.32;100039.96;133146;1303;22213;-77
2023/09/20 01:34:09;;;;;;;2.90;1.90;;;;;;;9.59;80.45;100041.81;133006;1310;22388;-76
2023/09/20 01:37:18;;;;;;;6.10;2.40;;;;;;;9.61;80.61;100041.42;133198;1307;22405;-76
2023/09/20 01:40:28;;;;;;;5.90;2.30;;;;;;;9.65;80.82;100043.18;133287;1303;22219;-75
2023/09/20 01:43:52;;;;;;;4.50;2.20;;;;;;;9.60;80.53;100044.01;133010;1303;23506;-79
2023/09/20 01:47:06;;;;;;;3.60;2.10;;;;;;;9.58;80.34;100043.96;133262;1303;22378;-75
2023/09/20 01:50:24;;;;;;;2.50;1.60;;;;;;;9.56;80.00;100043.27;133300;1302;23490;-74
2023/09/20 01:53:25;;;;;;;6.00;2.30;;;;;;;9.49;80.21;100042.89;133292;1304;22991;-75
2023/09/20 01:56:32;;;;;;;2.70;2.10;;;;;;;9.50;80.47;100046.23;133269;1304;22377;-75
2023/09/20 01:59:33;;;;;;;5.90;2.80;;;;;;;9.53;80.54;100047.64;133140;1304;22467;-75
2023/09/20 02:02:35;;;;;;;5.70;3.00;;;;;;;9.53;80.65;100040.68;133177;1303;22383;-78
2023/09/20 02:05:37;;;;;;;5.40;2.80;;;;;;;9.58;81.07;100042.84;133051;1303;22420;-76
2023/09/20 02:08:39;;;;;;;5.90;3.00;;;;;;;9.59;81.45;100041.29;133059;1304;22684;-78
2023/09/20 02:11:41;;;;;;;5.30;3.10;;;;;;;9.57;81.74;100042.91;133259;1304;22208;-76
2023/09/20 02:14:46;;;;;;;2.90;2.40;;;;;;;9.56;81.67;100040.42;133265;1303;22434;-81
2023/09/20 02:17:47;;;;;;;7.10;2.80;;;;;;;9.55;81.37;100040.72;133305;1303;22549;-75
2023/09/20 02:20:49;;;;;;;6.90;2.60;;;;;;;9.51;81.11;100037.09;133083;1307;22394;-74
2023/09/20 02:23:54;;;;;;;5.70;2.10;;;;;;;9.48;81.07;100038.92;133305;1302;22731;-77
2023/09/20 02:27:01;;;;;;;5.80;3.00;;;;;;;9.50;81.42;100037.71;133136;1307;23234;-78
2023/09/20 02:31:05;;;;;;;6.90;2.80;;;;;;;9.50;81.10;100037.82;133306;1310;22506;-76
2023/09/20 02:33:46;;;;;;;6.50;2.50;;;;;;;9.45;80.80;100042.11;133105;1304;22235;-79
2023/09/20 02:36:56;;;;;;;3.10;2.30;;;;;;;9.45;80.76;100045.82;133286;1304;22423;-80
2023/09/20 02:40:23;;;;;;;;;;;;;;;;;;;;;
2023/09/20 02:43:29;;;;;;;7.00;3.00;;;;;;;9.44;81.30;100039.77;133134;1304;22235;-75
2023/09/20 02:46:48;;;;;;;;;;;;;;;;;;;;;
2023/09/20 02:50:11;;;;;;;5.80;2.60;;;;;;;9.33;81.48;100044.22;133318;1303;23063;-75
2023/09/20 02:53:12;;;;;;;4.50;2.60;;;;;;;9.25;81.33;100050.33;133134;1304;22476;-82
2023/09/20 02:56:17;;;;;;;6.00;3.50;;;;;;;9.21;81.28;100046.59;133309;1307;22370;-74
2023/09/20 02:59:21;;;;;;;4.40;3.60;;;;;;;9.15;81.90;100045.92;133313;1303;22561;-77
2023/09/20 03:02:22;;;;;;;5.70;3.30;;;;;;;9.13;82.05;100043.52;133117;1303;23203;-77
2023/09/20 03:05:28;;;;;;;;;;;;;;;9.11;82.39;100046.33;133216;1303;22437;-77
2023/09/20 03:08:32;;;;;;;3.40;2.70;;;;;;;9.10;82.15;100043.25;133067;1307;22311;-82
2023/09/20 03:11:37;;;;;;;4.60;2.70;;;;;;;9.08;81.80;100044.53;133132;1295;23156;-74
2023/09/20 03:14:42;;;;;;;4.30;2.40;;;;;;;9.06;81.73;100044.89;133293;1304;22447;-77
2023/09/20 03:17:47;;;;;;;4.80;2.40;;;;;;;9.04;81.62;100044.05;133143;1303;22524;-75
2023/09/20 03:21:14;;;;;;;2.60;2.40;;;;;;;9.04;81.34;100042.71;133144;1304;22979;-76
2023/09/20 03:24:18;;;;;;;4.40;2.50;;;;;;;9.00;81.31;100041.84;133108;1306;23127;-75
2023/09/20 03:27:27;;;;;;;7.50;2.90;;;;;;;8.99;81.41;100040.75;133247;1304;22341;-75
2023/09/20 03:30:31;;;;;;;4.90;2.80;;;;;;;8.97;81.58;100041.96;133257;1303;22384;-75
2023/09/20 03:33:42;;;;;;;6.00;3.10;;;;;;;8.96;81.24;100039.55;132943;1303;23053;-76
2023/09/20 03:36:50;;;;;;;6.60;3.10;;;;;;;8.92;81.55;100040.48;133062;1303;22330;-77
2023/09/20 03:39:51;;;;;;;66.00;4.20;;;;;;;8.92;82.15;100039.52;133165;1305;22206;-77
2023/09/20 03:42:57;;;;;;;;;;;;;;;8.89;82.25;100035.92;133150;1304;23289;-79
2023/09/20 03:46:01;;;;;;;9.80;4.10;;;;;;;8.84;82.07;100032.77;133157;1304;22497;-74
2023/09/20 03:49:17;;;;;;;5.30;3.10;;;;;;;8.80;82.02;100032.42;133109;1309;22413;-75
2023/09/20 03:52:36;;;;;;;4.20;2.60;;;;;;;8.80;81.93;100031.89;133214;1306;23515;-75
2023/09/20 03:55:37;;;;;;;3.70;2.50;;;;;;;8.78;81.72;100033.20;133118;1304;22277;-77
2023/09/20 03:58:38;;;;;;;4.00;3.20;;;;;;;8.74;81.66;100030.77;133134;1305;22929;-75
2023/09/20 04:01:42;;;;;;;3.50;2.70;;;;;;;8.71;81.60;100032.08;133125;1304;22410;-77
2023/09/20 04:04:43;;;;;;;;;;;;;;;8.68;81.49;100028.88;133005;1307;22519;-77
2023/09/20 04:07:49;;;;;;;3.10;2.60;;;;;;;8.65;81.60;100031.02;133026;1309;22449;-76
2023/09/20 04:10:50;;;;;;;4.20;2.50;;;;;;;8.60;81.61;100031.81;132974;1307;23043;-75
2023/09/20 04:13:53;;;;;;;3.30;2.90;;;;;;;8.57;81.85;100038.13;133103;1304;22444;-75
2023/09/20 04:16:54;;;;;;;4.80;2.70;;;;;;;8.58;82.16;100040.65;133005;1304;22376;-78
2023/09/20 04:19:55;;;;;;;3.50;2.70;;;;;;;8.58;82.13;100039.48;133096;1305;23431;-78
2023/09/20 04:22:59;;;;;;;5.20;3.30;;;;;;;8.57;82.21;100040.32;133002;1307;22413;-75
2023/09/20 04:26:00;;;;;;;8.30;3.30;;;;;;;8.54;82.19;100037.02;133139;1304;23354;-74
2023/09/20 04:29:04;;;;;;;5.90;3.20;;;;;;;8.49;82.09;100044.39;133096;1304;22453;-79
2023/09/20 04:32:09;;;;;;;6.60;4.00;;;;;;;8.47;82.21;100044.73;133178;1306;22432;-74
2023/09/20 04:35:27;;;;;;;7.80;3.50;;;;;;;8.47;82.23;100046.13;133246;1304;22429;-77
2023/09/20 04:38:28;;;;;;;6.00;3.70;;;;;;;8.48;82.25;100041.64;133072;1303;22442;-76
2023/09/20 04:41:44;;;;;;;4.60;3.50;;;;;;;8.51;82.22;100046.33;133262;1304;22493;-79
2023/09/20 04:48:28;;;;;;;5.50;3.50;;;;;;;8.52;82.15;100053.05;133277;1304;22593;-76
2023/09/20 04:51:30;;;;;;;5.20;3.40;;;;;;;8.51;82.20;100054.27;133239;1303;23026;-74
2023/09/20 04:54:33;;;;;;;5.10;3.90;;;;;;;8.50;82.37;100053.08;133295;1303;22423;-77
2023/09/20 04:57:38;;;;;;;4.70;3.70;;;;;;;8.52;82.53;100050.27;133197;1305;22416;-78
2023/09/20 05:00:55;;;;;;;7.60;3.90;;;;;;;8.57;82.81;100048.58;133152;1304;22350;-75
2023/09/20 05:03:56;;;;;;;5.10;4.30;;;;;;;8.62;82.86;100052.05;133211;1302;22484;-74
2023/09/20 05:07:03;;;;;;;8.70;4.70;;;;;;;8.67;82.97;100050.66;133280;1303;22378;-80
2023/09/20 05:10:10;;;;;;;6.00;3.70;;;;;;;8.81;83.25;100052.56;133140;1304;22394;-76
2023/09/20 05:13:41;;;;;;;;;;;;;;;;;;;;;
2023/09/20 05:17:45;;;;;;;;;;;;;;;;;;;;;
2023/09/20 05:21:12;;;;;;;76.90;25.90;;;;;;;10.24;84.18;100055.41;133052;1310;22494;-75
2023/09/20 05:24:40;;;;;;;25.00;11.00;;;;;;;11.33;86.76;100058.58;133215;1303;22452;-75
2023/09/20 05:27:47;;;;;;;9.30;6.00;;;;;;;12.23;84.88;100058.94;133164;1304;22438;-75
2023/09/20 05:30:51;;;;;;;6.00;4.00;;;;;;;12.82;83.42;100059.30;133221;1304;23146;-75
2023/09/20 05:34:21;;;;;;;4.40;3.40;;;;;;;13.41;82.11;100065.23;133187;1303;22211;-74
2023/09/20 05:38:03;;;;;;;3.20;2.90;;;;;;;13.97;81.22;100068.81;133224;1304;23313;-74
2023/09/20 05:41:36;;;;;;;6.10;3.00;;;;;;;14.59;80.21;100070.50;133186;1304;22937;-75
2023/09/20 05:44:52;;;;;;;5.00;3.50;;;;;;;15.07;79.51;100069.76;133247;1307;22290;-74
2023/09/20 05:48:22;;;;;;;5.90;3.60;;;;;;;15.59;79.01;100059.80;133234;1304;22507;-75
2023/09/20 05:55:10;;;;;;;4.30;3.40;;;;;;;16.81;77.86;100065.11;133015;1306;22473;-74
2023/09/20 05:58:28;;;;;;;6.10;3.60;;;;;;;17.43;76.65;100068.12;133123;1304;22375;-76
2023/09/20 06:02:01;;;;;;;7.70;3.90;;;;;;;17.94;75.83;100069.45;133296;1303;22195;-76
2023/09/20 06:06:36;;;;;;;6.50;3.20;;;;;;;18.54;74.28;100077.52;133233;1304;22315;-75
2023/09/20 06:09:39;;;;;;;5.20;3.00;;;;;;;19.00;73.59;100077.52;133282;1306;23297;-74
2023/09/20 06:13:19;;;;;;;;;;;;;;;;;;;;;
2023/09/20 06:16:46;;;;;;;4.90;3.00;;;;;;;20.15;72.31;100077.25;133257;1301;22359;-74
2023/09/20 06:19:57;;;;;;;;;;;;;;;;;;;;;
2023/09/20 06:23:41;;;;;;;6.60;2.20;;;;;;;21.19;70.03;100087.02;133269;1304;23255;-74
2023/09/20 06:26:46;;;;;;;7.30;2.50;;;;;;;21.60;69.31;100087.55;133269;1304;22430;-74
2023/09/20 06:29:51;;;;;;;6.60;2.30;;;;;;;22.10;68.43;100085.59;133244;1302;22366;-74
2023/09/20 06:33:16;;;;;;;;;;;;;;;;;;;;;
2023/09/20 06:36:27;;;;;;;5.20;2.10;;;;;;;23.09;66.19;100087.77;133242;1310;22292;-74
2023/09/20 06:40:03;;;;;;;;;;;;;;;;;;;;;
2023/09/20 06:43:23;;;;;;;2.90;2.30;;;;;;;23.80;63.74;100085.77;133263;1304;23583;-76
2023/09/20 06:46:43;;;;;;;3.50;2.00;;;;;;;23.95;62.39;100088.32;133236;1304;22495;-76
2023/09/20 06:49:50;;;;;;;2.70;1.70;;;;;;;23.96;61.65;100085.79;133256;1304;22493;-75
2023/09/20 06:52:58;;;;;;;3.60;1.80;;;;;;;24.19;61.19;100087.69;133015;1310;336169;-77
2023/09/20 06:56:34;;;;;;;;;;;;;;;;;;;;;
2023/09/20 06:59:37;;;;;;;4.20;2.30;;;;;;;24.57;59.32;100086.14;133269;1304;22439;-74
2023/09/20 07:03:41;;;;;;;3.80;2.10;;;;;;;24.58;58.36;100086.63;133241;1303;22348;-75
2023/09/20 07:07:19;;;;;;;;;;;;;;;;;;;;;
2023/09/20 07:10:33;;;;;;;7.80;2.00;;;;;;;24.84;56.65;100092.23;133142;1307;23687;-75
2023/09/20 07:13:37;;;;;;;3.00;1.90;;;;;;;24.69;55.84;100089.63;133291;1304;22455;-75
2023/09/20 07:16:51;;;;;;;2.40;1.70;;;;;;;24.66;55.63;100091.63;133079;1305;22297;-76
2023/09/20 07:20:40;;;;;;;3.90;2.20;;;;;;;24.68;55.19;100097.16;133082;1310;22258;-75
2023/09/20 07:23:31;;;;;;;3.80;1.60;;;;;;;24.68;54.70;100100.70;133198;1303;22475;-75
2023/09/20 07:26:34;;;;;;;3.10;2.10;;;;;;;24.58;54.76;100096.88;133263;1303;22383;-74
2023/09/20 07:30:06;;;;;;;;;;;;;;;;;;;;;
2023/09/20 07:33:18;;;;;;;4.30;1.90;;;;;;;25.06;54.17;100096.27;133194;1305;22267;-75
2023/09/20 07:36:40;;;;;;;4.80;1.80;;;;;;;25.23;53.90;100095.02;133260;1303;22437;-76
2023/09/20 07:39:41;;;;;;;5.00;2.20;;;;;;;25.49;53.77;100099.27;133183;1307;22497;-75
2023/09/20 07:43:15;;;;;;;10.80;2.10;;;;;;;25.75;52.90;100105.17;133171;1306;22401;-74
2023/09/20 07:46:40;;;;;;;;;;;;;;;;;;;;;
2023/09/20 07:49:53;;;;;;;3.40;2.20;;;;;;;25.83;51.76;100104.98;133159;1305;22352;-76
2023/09/20 07:53:11;;;;;;;3.40;1.90;;;;;;;25.82;51.32;100101.23;133042;1305;22218;-76
2023/09/20 07:56:18;;;;;;;4.60;2.20;;;;;;;25.63;50.91;100099.09;133104;1308;22491;-76
2023/09/20 08:00:29;;;;;;;3.60;1.80;;;;;;;25.63;50.81;100095.30;133038;1310;22434;-76
2023/09/20 08:03:32;;;;;;;2.40;1.80;;;;;;;25.74;50.71;100095.38;133099;1305;22950;-78
2023/09/20 08:06:42;;;;;;;3.40;1.80;;;;;;;25.91;50.39;100094.20;133198;1305;22500;-78
2023/09/20 08:09:57;;;;;;;2.00;1.80;;;;;;;26.03;49.74;100096.34;133188;1307;22769;-76
2023/09/20 08:13:20;;;;;;;3.40;1.70;;;;;;;26.11;49.65;100092.92;132986;1310;22428;-76
2023/09/20 08:16:29;;;;;;;3.20;1.60;;;;;;;26.21;49.13;100093.15;133160;1308;22387;-75
2023/09/20 08:19:37;;;;;;;3.60;1.40;;;;;;;26.30;48.95;100095.05;132956;1307;22426;-76
2023/09/20 09:01:22;;;;;;;;;;;;;;;;;;;;;
2023/09/20 09:05:03;;;;;;;5.90;1.80;;;;;;;26.88;45.30;100064.38;132997;1310;22913;-77
2023/09/20 09:08:36;;;;;;;;;;;;;;;;;;;;;
2023/09/20 09:16:20;;;;;;;6.30;1.60;;;;;;;26.75;45.06;100050.55;133026;1307;22305;-77
2023/09/20 09:20:20;;;;;;;;;;;;;;;;;;;;;
2023/09/20 09:23:48;;;;;;;;;;;;;;;;;;;;;
2023/09/20 09:27:20;;;;;;;;;;;;;;;;;;;;;
2023/09/20 09:31:00;;;;;;;;;;;;;;;;;;;;;
2023/09/20 09:34:57;;;;;;;2.70;1.50;;;;;;;26.81;43.36;100041.43;133195;1304;22197;-77
2023/09/20 09:38:34;;;;;;;;;;;;;;;;;;;;;
2023/09/20 09:42:02;;;;;;;;;;;;;;;;;;;;;
2023/09/20 09:45:50;;;;;;;;;;;;;;;;;;;;;
2023/09/20 09:52:56;;;;;;;5.80;2.10;;;;;;;26.44;44.04;100023.52;133030;1302;23211;-77
2023/09/20 09:56:31;;;;;;;;;;;;;;;;;;;;;
2023/09/20 10:00:16;;;;;;;9.10;2.00;;;;;;;26.57;43.31;100027.34;133300;1303;22327;-77
2023/09/20 10:03:42;;;;;;;2.70;1.80;;;;;;;26.84;43.08;100029.29;133133;1304;22757;-77
2023/09/20 10:06:53;;;;;;;2.10;1.70;;;;;;;27.13;43.23;100027.61;133140;1305;23688;-77
2023/09/20 10:10:36;;;;;;;;;;;;;;;;;;;;;
2023/09/20 10:14:10;;;;;;;;;;;;;;;;;;;;;
2023/09/20 10:18:15;;;;;;;;;;;;;;;;;;;;;
2023/09/20 10:22:45;;;;;;;3.40;1.30;;;;;;;27.75;41.71;100016.13;133055;1303;22675;-77
2023/09/20 10:25:53;;;;;;;3.40;1.90;;;;;;;27.73;41.11;100015.21;133229;1303;22603;-77
2023/09/20 10:30:41;;;;;;;1.90;1.70;;;;;;;27.34;40.46;100011.85;133257;1303;23374;-77
2023/09/20 10:34:53;;;;;;;8.70;1.90;;;;;;;26.93;40.90;100011.17;133015;1304;22600;-77
2023/09/20 10:38:35;;;;;;;;;;;;;;;;;;;;;
2023/09/20 10:41:53;;;;;;;1.40;1.30;;;;;;;26.55;41.04;100008.95;133181;1303;23088;-79
2023/09/20 10:46:23;;;;;;;4.60;1.60;;;;;;;26.76;40.96;100006.98;133310;1304;23435;-77
2023/09/20 10:49:57;;;;;;;2.30;1.70;;;;;;;26.92;40.74;100005.26;132978;1303;22418;-77
2023/09/20 10:53:23;;;;;;;2.90;1.60;;;;;;;27.00;40.41;99998.91;133138;1303;23241;-75
2023/09/20 10:57:17;;;;;;;;;;;;;;;;;;;;;
2023/09/20 11:00:40;;;;;;;6.00;1.90;;;;;;;26.98;40.29;99979.54;132886;1310;22426;-75
2023/09/20 11:04:30;;;;;;;1.70;1.60;;;;;;;27.04;40.73;99973.73;133277;1304;23209;-76
2023/09/20 11:08:07;;;;;;;3.70;1.70;;;;;;;27.17;40.77;99973.47;133180;1304;22384;-74
2023/09/20 11:11:54;;;;;;;4.10;1.90;;;;;;;27.00;39.89;99975.89;133154;1303;22502;-74
2023/09/20 11:14:56;;;;;;;4.00;1.50;;;;;;;26.86;40.58;99976.38;133253;1303;22217;-74
2023/09/20 11:18:08;;;;;;;3.70;1.70;;;;;;;26.92;40.78;99974.11;133278;1300;22382;-75
2023/09/20 11:21:58;;;;;;;2.70;1.90;;;;;;;26.96;41.00;99966.80;133236;1303;22499;-74
2023/09/20 11:25:03;;;;;;;2.10;1.70;;;;;;;27.04;41.07;99960.17;133310;1303;22410;-72
2023/09/20 11:28:17;;;;;;;2.20;1.50;;;;;;;27.06;40.79;99960.98;133261;1303;22274;-74
2023/09/20 11:31:35;;;;;;;4.30;1.60;;;;;;;26.96;40.58;99954.77;133293;1303;22565;-74
2023/09/20 11:34:52;;;;;;;2.20;1.60;;;;;;;26.89;41.10;99960.52;133135;1306;22437;-74
2023/09/20 11:37:59;;;;;;;2.50;1.50;;;;;;;26.78;40.47;99959.47;133301;1303;23159;-74
2023/09/20 11:41:12;;;;;;;1.90;1.50;;;;;;;26.78;40.87;99958.21;133312;1303;23244;-74
2023/09/20 11:44:20;;;;;;;6.00;1.90;;;;;;;26.77;40.62;99959.20;133309;1302;22449;-75
2023/09/20 11:47:25;;;;;;;3.90;1.60;;;;;;;26.80;40.54;99958.98;133139;1304;23410;-74
2023/09/20 11:50:33;;;;;;;6.00;1.70;;;;;;;26.78;40.30;99960.02;133346;1303;23425;-74
2023/09/20 11:53:37;;;;;;;4.00;1.50;;;;;;;26.73;40.34;99956.32;133349;1303;22464;-74
2023/09/20 11:57:08;;;;;;;1.60;1.50;;;;;;;26.66;40.58;99953.14;133334;1303;22286;-74
2023/09/20 12:00:40;;;;;;;6.10;1.50;;;;;;;26.69;40.86;99950.40;133288;1303;22982;-74
2023/09/20 12:04:05;;;;;;;3.00;1.50;;;;;;;26.82;40.64;99950.41;133301;1302;22403;-76
2023/09/20 12:07:19;;;;;;;2.80;1.50;;;;;;;26.85;40.17;99945.45;133128;1304;22307;-74
2023/09/20 12:14:39;;;;;;;;;;;;;;;;;;;;;
2023/09/20 12:17:56;;;;;;;7.20;1.70;;;;;;;26.87;40.01;99936.68;133297;1304;22701;-78
2023/09/20 12:21:19;;;;;;;4.80;1.60;;;;;;;26.95;40.09;99936.70;133218;1303;22484;-76
2023/09/20 12:24:29;;;;;;;2.20;1.70;;;;;;;26.98;40.10;99926.55;133275;1306;22401;-80
2023/09/20 12:31:26;;;;;;;2.90;1.50;;;;;;;26.73;39.78;99923.56;133182;1299;23753;-82
2023/09/20 12:34:51;;;;;;;1.90;1.50;;;;;;;26.73;39.92;99918.98;133309;1304;22209;-77
2023/09/20 12:38:04;;;;;;;2.60;1.70;;;;;;;26.89;40.25;99917.02;133303;1303;22370;-77
2023/09/20 12:41:37;;;;;;;4.30;1.90;;;;;;;26.98;39.80;99908.42;133320;1303;23312;-78
2023/09/20 12:45:26;;;;;;;5.60;2.00;;;;;;;26.93;39.71;99903.34;133209;1304;22572;-77
2023/09/20 12:52:57;;;;;;;3.90;1.60;;;;;;;26.79;39.67;99902.36;133095;1303;22499;-78
2023/09/20 12:56:18;;;;;;;2.30;2.00;;;;;;;26.77;39.97;99896.60;133306;1303;22223;-77
2023/09/20 12:59:39;;;;;;;2.90;2.00;;;;;;;26.78;39.74;99894.70;133278;1303;22282;-76
2023/09/20 13:03:08;;;;;;;;;;;;;;;;;;;;;
2023/09/20 13:07:03;;;;;;;;;;;;;;;;;;;;;
2023/09/20 13:10:13;;;;;;;4.70;1.90;;;;;;;26.64;39.68;99884.58;133161;1307;22579;-80
2023/09/20 13:13:40;;;;;;;5.30;1.70;;;;;;;26.70;40.23;99877.59;133334;1306;22247;-77
2023/09/20 13:17:22;;;;;;;3.90;1.60;;;;;;;26.67;40.37;99877.27;133105;1304;22457;-78
2023/09/20 13:20:40;;;;;;;;;;;;;;;26.63;39.99;99875.02;133248;1304;22603;-80
2023/09/20 13:24:15;;;;;;;3.50;1.70;;;;;;;26.55;39.83;99870.48;133269;1303;22440;-78
2023/09/20 13:27:39;;;;;;;2.20;1.80;;;;;;;26.48;39.98;99869.06;133199;1303;22260;-78
2023/09/20 13:31:00;;;;;;;2.40;1.90;;;;;;;26.48;39.99;99864.86;133269;1303;23921;-80
2023/09/20 13:38:29;;;;;;;3.80;1.60;;;;;;;26.34;39.75;99857.20;133121;1303;22538;-79
2023/09/20 13:42:32;;;;;;;2.10;1.50;;;;;;;26.28;39.97;99860.91;132885;1303;22357;-77
2023/09/20 13:45:35;;;;;;;3.70;1.60;;;;;;;26.28;40.17;99860.74;133159;1305;22559;-80
2023/09/20 13:49:20;;;;;;;;;;;;;;;;;;;;;
2023/09/20 13:52:56;;;;;;;;;;;;;;;;;;;;;
2023/09/20 14:01:40;;;;;;;5.40;1.60;;;;;;;25.98;40.23;99847.40;132914;1304;22769;-78
2023/09/20 14:04:39;;;;;;;2.40;1.80;;;;;;;26.02;40.22;99848.31;133140;1307;23155;-79
2023/09/20 14:08:23;;;;;;;;;;;;;;;;;;;;;
2023/09/20 14:11:44;;;;;;;;;;;;;;;;;;;;;
2023/09/20 14:16:21;;;;;;;2.90;1.70;;;;;;;25.96;40.12;99838.82;133137;1304;22455;-79
2023/09/20 14:19:24;;;;;;;4.80;1.90;;;;;;;25.90;40.05;99834.11;132865;1305;23276;-80
2023/09/20 14:22:31;;;;;;;4.00;2.20;;;;;;;25.82;39.79;99835.19;133152;1304;22678;-78
2023/09/20 14:27:00;;;;;;;4.70;2.10;;;;;;;25.67;40.01;99834.32;133010;1304;22423;-78
2023/09/20 14:30:00;;;;;;;8.90;2.00;;;;;;;25.50;40.42;99831.52;132866;1303;23140;-80
2023/09/20 14:33:57;;;;;;;2.70;1.90;;;;;;;25.39;40.05;99827.29;133105;1304;22432;-78
2023/09/20 14:37:45;;;;;;;2.30;2.10;;;;;;;25.27;40.25;99827.77;133085;1304;22216;-78
2023/09/20 14:42:21;;;;;;;2.40;2.00;;;;;;;25.18;40.53;99821.79;132806;1307;22386;-79
2023/09/20 14:50:16;;;;;;;;;;;;;;;;;;;;;
2023/09/20 14:54:38;;;;;;;4.90;2.00;;;;;;;24.92;40.62;99821.02;132790;1309;22973;-80
2023/09/20 14:58:26;;;;;;;2.20;2.00;;;;;;;24.76;40.87;99819.57;132817;1307;22833;-80
2023/09/20 15:06:28;;;;;;;2.70;2.10;;;;;;;24.60;41.15;99817.77;132841;1306;23254;-80
2023/09/20 15:10:26;;;;;;;;;;;;;;;;;;;;;
2023/09/20 15:14:42;;;;;;;3.10;1.90;;;;;;;24.58;41.38;99819.52;133128;1304;22385;-80
2023/09/20 15:17:31;;;;;;;2.90;2.00;;;;;;;24.59;41.58;99818.22;132821;1308;22222;-79
2023/09/20 15:21:27;;;;;;;;;;;;;;;;;;;;;
2023/09/20 15:24:53;;;;;;;2.40;1.80;;;;;;;24.58;41.73;99815.61;133150;1304;23408;-80
2023/09/20 15:32:17;;;;;;;;;;;;;;;;;;;;;
2023/09/20 15:35:56;;;;;;;3.60;1.90;;;;;;;24.38;41.77;99817.79;132995;1311;22435;-80
2023/09/20 15:39:05;;;;;;;6.20;2.50;;;;;;;24.32;41.72;99819.11;133246;1303;22242;-78
2023/09/20 15:42:32;;;;;;;;;;;;;;;;;;;;;
2023/09/20 15:46:26;;;;;;;;;;;;;;;;;;;;;
2023/09/20 15:49:48;;;;;;;6.70;3.60;;;;;;;24.13;42.18;99820.61;133298;1303;22489;-81
2023/09/20 15:54:08;;;;;;;5.90;3.80;;;;;;;24.07;42.31;99817.42;133145;1306;22282;-79
2023/09/20 15:57:33;;;;;;;;;;;;;;;;;;;;;
2023/09/20 16:00:48;;;;;;;5.90;3.50;;;;;;;23.84;43.56;99812.64;133092;1310;22494;-85
2023/09/20 16:04:33;;;;;;;6.60;3.60;;;;;;;23.71;44.68;99812.27;133127;1303;22951;-81
2023/09/20 16:07:51;;;;;;;6.60;3.40;;;;;;;23.58;45.05;99813.09;133263;1303;23691;-79
2023/09/20 16:10:55;;;;;;;5.40;3.00;;;;;;;23.47;45.30;99814.58;133123;1303;22977;-79
2023/09/20 16:14:03;;;;;;;5.80;3.00;;;;;;;23.36;45.27;99811.78;133306;1303;22243;-82
2023/09/20 16:17:28;;;;;;;6.10;2.70;;;;;;;23.27;45.48;99813.89;133290;1303;22176;-78
2023/09/20 16:20:30;;;;;;;3.90;2.30;;;;;;;23.18;46.08;99811.11;133182;1304;22970;-81
2023/09/20 16:23:36;;;;;;;2.50;1.90;;;;;;;23.07;46.13;99807.09;133304;1303;22903;-83
2023/09/20 16:26:59;;;;;;;3.50;2.10;;;;;;;22.97;46.27;99806.34;133156;1304;22397;-84
2023/09/20 16:30:57;;;;;;;;;;;;;;;;;;;;;
2023/09/20 16:34:10;;;;;;;5.40;2.40;;;;;;;22.66;47.48;99796.00;133148;1306;22348;-80
2023/09/20 16:38:07;;;;;;;;;;;;;;;;;;;;;
2023/09/20 16:42:09;;;;;;;3.50;2.30;;;;;;;22.10;49.18;99798.84;133349;1303;22527;-80
2023/09/20 16:45:36;;;;;;;2.30;1.90;;;;;;;21.89;49.98;99801.52;133322;1303;22420;-80
2023/09/20 16:57:12;;;;;;;3.40;2.50;;;;;;;21.09;51.61;99807.96;133101;1303;23492;-85
2023/09/20 17:00:38;;;;;;;3.90;2.20;;;;;;;20.93;52.22;99805.79;133210;1303;22447;-84
2023/09/20 17:03:55;;;;;;;4.30;2.30;;;;;;;20.75;52.61;99805.78;133169;1305;23025;-84
2023/09/20 17:07:15;;;;;;;2.70;2.30;;;;;;;20.58;53.21;99809.13;133290;1307;23691;-81
2023/09/20 17:10:52;;;;;;;;;;;;;;;;;;;;;
2023/09/20 17:14:28;;;;;;;;;;;;;;;;;;;;;
2023/09/20 17:17:52;;;;;;;3.80;2.30;;;;;;;19.89;55.02;99809.77;133173;1310;22244;-82
2023/09/20 17:20:59;;;;;;;3.40;2.50;;;;;;;19.77;55.60;99815.41;133322;1303;23009;-85
2023/09/20 17:24:38;;;;;;;;;;;;;;;;;;;;;
2023/09/20 17:27:47;;;;;;;4.90;2.40;;;;;;;19.40;56.67;99819.45;133301;1304;22433;-81
2023/09/20 17:31:10;;;;;;;4.00;2.20;;;;;;;19.21;57.03;99824.42;133333;1302;22384;-82
2023/09/20 17:34:38;;;;;;;2.80;2.40;;;;;;;19.01;57.98;99826.00;133297;1300;22431;-81
2023/09/20 17:37:45;;;;;;;5.20;2.30;;;;;;;18.76;58.57;99830.21;133309;1303;22416;-81
2023/09/20 17:40:49;;;;;;;8.10;2.50;;;;;;;18.58;59.11;99824.19;133324;1303;22509;-79
2023/09/20 17:44:36;;;;;;;3.60;2.20;;;;;;;18.42;59.62;99822.60;133119;1303;23374;-89
2023/09/20 17:51:49;;;;;;;6.60;5.40;;;;;;;17.94;60.71;99824.14;133389;1304;22367;-83
2023/09/20 17:55:18;;;;;;;4.50;3.80;;;;;;;17.83;61.13;99824.03;133192;1304;22201;-83
2023/09/20 17:58:41;;;;;;;4.10;3.40;;;;;;;17.73;61.14;99829.31;133339;1310;22456;-82
2023/09/20 18:02:14;;;;;;;6.00;3.00;;;;;;;17.61;61.45;99831.02;133207;1303;22459;-84
2023/09/20 18:05:42;;;;;;;5.30;2.60;;;;;;;17.42;62.10;99828.66;133254;1310;23230;-82
2023/09/20 18:08:48;;;;;;;5.90;3.00;;;;;;;17.30;62.40;99830.89;133348;1300;22414;-82
2023/09/20 18:13:02;;;;;;;;;;;;;;;;;;;;;
2023/09/20 18:17:17;;;;;;;9.80;8.00;;;;;;;17.15;62.93;99833.27;133195;1303;22407;-84
2023/09/20 18:24:21;;;;;;;;;;;;;;;;;;;;;
2023/09/20 18:27:36;;;;;;;10.50;6.00;;;;;;;16.84;63.70;99836.51;133312;1310;22858;-83
2023/09/20 18:31:31;;;;;;;;;;;;;;;;;;;;;
2023/09/20 18:35:07;;;;;;;11.80;5.20;;;;;;;16.69;64.26;99839.06;132961;1305;22992;-85
2023/09/20 18:38:52;;;;;;;9.20;5.00;;;;;;;16.52;64.72;99834.45;132707;1309;22405;-83
2023/09/20 18:42:42;;;;;;;;;;;;;;;;;;;;;
2023/09/20 18:45:52;;;;;;;9.00;5.90;;;;;;;16.43;65.20;99835.17;132724;1309;22423;-83
2023/09/20 18:49:41;;;;;;;9.00;5.50;;;;;;;16.38;65.48;99839.23;132824;1309;22268;-83
2023/09/20 18:53:21;;;;;;;11.00;5.90;;;;;;;16.35;65.67;99842.70;132289;1309;333028;-83
2023/09/20 18:57:06;;;;;;;8.40;5.80;;;;;;;16.27;65.93;99845.27;132427;1312;22433;-82